Time;durP1;ratioP1;P1;durP2;ratioP2;P2;SDS_P1;SDS_P2;PMS_P1;PMS_P2;Temp;Humidity;BMP_temperature;BMP_pressure;BME280_temperature;BME280_humidity;BME280_pressure;Samples;Min_cycle;Max_cycle;Signal;HPM_P1;HPM_P2
2022/01/25 00:29:05;;;;;;;;;;;4.40;99.90;;;;;;4998284;28;19925;-87
2022/01/25 00:31:33;;;;;;;;;;;4.70;99.90;;;;;;4998904;28;19922;-87
2022/01/25 00:33:58;;;;;;;;;;;4.40;99.90;;;;;;4982042;28;20274;-87
2022/01/25 00:36:25;;;;;;;;;;;4.40;99.90;;;;;;4981918;28;19988;-87
2022/01/25 00:38:51;;;;;;;;;;;4.40;99.90;;;;;;4982158;28;19960;-87
2022/01/25 00:41:17;;;;;;;;;;;4.60;99.90;;;;;;4981865;28;19985;-87
2022/01/25 00:43:43;;;;;;;;;;;4.40;99.90;;;;;;4981787;28;20367;-87
2022/01/25 00:46:11;;;;;;;;;;;4.40;99.90;;;;;;4997889;28;20012;-88
2022/01/25 00:53:59;;;;;;;;;;;4.30;99.90;;;;;;4998026;28;20281;-87
2022/01/25 00:56:27;;;;;;;;;;;4.40;99.90;;;;;;4981894;28;19976;-87
2022/01/25 00:58:53;;;;;;;;;;;4.40;99.90;;;;;;4981514;28;20055;-87
2022/01/25 01:01:19;;;;;;;;;;;4.50;99.90;;;;;;4981508;28;20066;-87
2022/01/25 01:03:45;;;;;;;;;;;4.30;99.90;;;;;;4997518;28;19921;-87
2022/01/25 01:06:11;;;;;;;;;;;4.20;99.90;;;;;;4981291;28;19921;-87
2022/01/25 01:08:36;;;;;;;;;;;4.40;99.90;;;;;;4981120;28;19921;-87
2022/01/25 01:11:06;;;;;;;;;;;4.30;99.90;;;;;;4997519;28;19921;-87
2022/01/25 01:13:52;;;;;;;;;;;4.20;99.90;;;;;;4981519;28;19969;-87
2022/01/25 01:32:52;;;;;;;;;;;4.30;99.90;;;;;;5053394;28;19921;-88
2022/01/25 01:37:47;;;;;;;;;;;4.30;99.90;;;;;;5054086;28;20374;-87
2022/01/25 01:40:40;;;;;;;;;;;4.50;99.90;;;;;;5053266;28;19963;-87
2022/01/25 01:43:18;;;;;;;;;;;4.20;99.90;;;;;;5053763;28;20269;-88
2022/01/25 01:48:31;;;;;;;;;;;4.30;99.90;;;;;;5054823;28;19920;-87
2022/01/25 01:51:03;;;;;;;;;;;4.10;99.90;;;;;;5037038;28;20367;-87
2022/01/25 01:53:29;;;;;;;;;;;4.20;99.90;;;;;;5037603;28;20057;-87
2022/01/25 01:55:55;;;;;;;;;;;4.30;99.90;;;;;;5037126;28;20335;-86
2022/01/25 01:58:20;;;;;;;;;;;4.40;99.90;;;;;;5036848;28;19928;-87
2022/01/25 02:00:47;;;;;;;;;;;4.30;99.90;;;;;;5037160;28;19921;-87
2022/01/25 02:03:13;;;;;;;;;;;4.30;99.90;;;;;;5037378;28;19921;-87
2022/01/25 02:05:39;;;;;;;;;;;4.30;99.90;;;;;;5053917;28;19927;-87
2022/01/25 02:08:05;;;;;;;;;;;4.30;99.90;;;;;;5053848;28;19921;-87
2022/01/25 02:10:30;;;;;;;;;;;4.30;99.90;;;;;;5036669;28;19927;-87
2022/01/25 02:12:56;;;;;;;;;;;4.20;99.90;;;;;;5053708;28;20371;-87
2022/01/25 02:15:25;;;;;;;;;;;4.20;99.90;;;;;;5036715;28;19921;-87
2022/01/25 02:22:24;;;;;;;;;;;4.30;99.90;;;;;;5037604;28;19920;-87
2022/01/25 02:23:26;;;;;;;;;;;4.20;99.90;;;;;;5054329;28;19927;-87
2022/01/25 02:25:53;;;;;;;;;;;4.20;99.90;;;;;;5036543;28;20281;-87
2022/01/25 02:28:19;;;;;;;;;;;4.30;99.90;;;;;;5036780;28;20009;-87
2022/01/25 02:30:46;;;;;;;;;;;4.20;99.90;;;;;;5052882;28;19921;-88
2022/01/25 02:33:12;;;;;;;;;;;4.40;99.90;;;;;;5036153;28;20284;-87
2022/01/25 02:35:37;;;;;;;;;;;5.10;99.90;;;;;;5053551;28;19920;-87
2022/01/25 02:38:03;;;;;;;;;;;4.20;99.90;;;;;;5053208;28;19974;-87
2022/01/25 02:40:29;;;;;;;;;;;4.50;99.90;;;;;;5036280;28;19924;-87
2022/01/25 02:42:55;;;;;;;;;;;4.30;99.90;;;;;;5036461;28;19921;-87
2022/01/25 02:45:21;;;;;;;;;;;4.30;99.90;;;;;;5052601;28;19921;-87
2022/01/25 02:50:31;;;;;;;;;;;4.70;99.90;;;;;;5053695;28;19921;-87
2022/01/25 02:52:57;;;;;;;;;;;4.20;99.90;;;;;;5036702;28;20404;-87
2022/01/25 02:55:23;;;;;;;;;;;4.20;99.90;;;;;;5036306;28;20023;-87
2022/01/25 02:57:48;;;;;;;;;;;4.50;99.90;;;;;;5035865;28;19924;-88
2022/01/25 03:00:15;;;;;;;;;;;4.50;99.90;;;;;;5036315;28;19925;-87
2022/01/25 03:02:41;;;;;;;;;;;4.20;99.90;;;;;;5036330;28;19956;-87
2022/01/25 03:05:07;;;;;;;;;;;4.30;99.90;;;;;;5036261;28;20371;-87
2022/01/25 03:07:33;;;;;;;;;;;4.20;99.90;;;;;;5036247;28;19971;-87
2022/01/25 03:10:00;;;;;;;;;;;4.30;99.90;;;;;;5036256;28;19920;-87
2022/01/25 03:12:39;;;;;;;;;;;4.20;99.90;;;;;;5036286;28;19921;-87
2022/01/25 03:15:25;;;;;;;;;;;4.20;99.90;;;;;;5035911;28;19921;-87
2022/01/25 03:17:58;;;;;;;;;;;4.20;99.90;;;;;;5036528;28;20019;-87
2022/01/25 03:23:19;;;;;;;;;;;4.60;99.90;;;;;;5052181;28;20413;-87
2022/01/25 03:25:47;;;;;;;;;;;3.90;99.90;;;;;;5036186;28;19967;-87
2022/01/25 03:28:19;;;;;;;;;;;4.10;99.90;;;;;;5035992;28;19964;-87
2022/01/25 03:30:45;;;;;;;;;;;4.20;99.90;;;;;;5035857;28;20083;-87
2022/01/25 03:33:11;;;;;;;;;;;4.20;99.90;;;;;;5035411;28;20424;-87
2022/01/25 03:35:37;;;;;;;;;;;4.40;99.90;;;;;;5035669;28;19920;-87
2022/01/25 03:38:03;;;;;;;;;;;4.20;99.90;;;;;;5035987;28;19921;-87
2022/01/25 03:40:31;;;;;;;;;;;4.90;99.90;;;;;;5035962;28;19924;-87
2022/01/25 03:42:59;;;;;;;;;;;4.20;99.90;;;;;;5052665;28;19927;-87
2022/01/25 03:45:30;;;;;;;;;;;4.80;99.90;;;;;;5035897;28;19920;-87
2022/01/25 03:49:48;;;;;;;;;;;5.20;99.90;;;;;;5036298;28;19927;-87
2022/01/25 03:50:43;;;;;;;;;;;4.20;99.90;;;;;;5051012;28;19921;-87
2022/01/25 03:53:09;;;;;;;;;;;4.50;99.90;;;;;;5052088;28;20288;-87
2022/01/25 03:55:35;;;;;;;;;;;4.60;99.90;;;;;;5036618;28;20011;-87
2022/01/25 03:58:01;;;;;;;;;;;4.20;99.90;;;;;;5039113;28;20487;-87
2022/01/25 04:00:26;;;;;;;;;;;4.20;99.90;;;;;;5056008;28;20019;-87
2022/01/25 04:02:59;;;;;;;;;;;4.20;99.90;;;;;;5039677;28;19921;-87
2022/01/25 04:05:35;;;;;;;;;;;4.20;99.90;;;;;;5039640;28;19920;-87
2022/01/25 04:08:01;;;;;;;;;;;4.20;99.90;;;;;;5039272;28;19928;-87
2022/01/25 04:10:27;;;;;;;;;;;4.30;99.90;;;;;;5038643;28;19920;-87
2022/01/25 04:12:52;;;;;;;;;;;4.20;99.90;;;;;;5038830;28;19928;-87
2022/01/25 04:15:18;;;;;;;;;;;4.20;99.90;;;;;;5039591;28;19960;-87
2022/01/25 04:17:49;;;;;;;;;;;4.30;99.90;;;;;;5039318;28;19971;-87
2022/01/25 04:20:23;;;;;;;;;;;4.20;99.90;;;;;;5039702;28;19947;-87
2022/01/25 04:25:33;;;;;;;;;;;4.20;99.90;;;;;;5056213;28;20388;-87
2022/01/25 04:27:59;;;;;;;;;;;4.20;99.90;;;;;;5055651;28;19921;-87
2022/01/25 04:30:25;;;;;;;;;;;4.30;99.90;;;;;;5038676;28;19995;-87
2022/01/25 04:33:00;;;;;;;;;;;4.00;99.90;;;;;;5038525;28;20368;-87
2022/01/25 04:35:44;;;;;;;;;;;4.50;99.90;;;;;;5038583;28;19920;-87
2022/01/25 04:59:58;;;;;;;;;;;4.20;99.90;;;;;;4997957;28;19921;-87
2022/01/25 05:02:44;;;;;;;;;;;4.20;99.90;;;;;;4981802;28;20357;-86
2022/01/25 05:05:16;;;;;;;;;;;3.70;99.90;;;;;;4981648;28;20024;-87
2022/01/25 05:08:02;;;;;;;;;;;4.20;99.90;;;;;;4980556;28;19922;-87
2022/01/25 05:10:30;;;;;;;;;;;4.20;99.90;;;;;;4981213;28;19999;-87
2022/01/25 05:13:35;;;;;;;;;;;4.10;99.90;;;;;;4981260;28;19921;-87
2022/01/25 05:16:14;;;;;;;;;;;4.30;99.90;;;;;;4997558;28;19929;-87
2022/01/25 05:18:44;;;;;;;;;;;4.10;99.90;;;;;;4981225;28;20389;-87
2022/01/25 05:23:54;;;;;;;;;;;4.10;99.90;;;;;;4998036;28;19921;-87
2022/01/25 05:26:20;;;;;;;;;;;5.30;99.90;;;;;;4980537;28;20361;-87
2022/01/25 05:28:46;;;;;;;;;;;4.20;99.90;;;;;;4997162;28;19928;-87
2022/01/25 05:31:12;;;;;;;;;;;4.20;99.90;;;;;;5031089;28;19921;-87
2022/01/25 05:33:37;;;;;;;;;;;4.80;99.90;;;;;;5037938;28;19928;-87
2022/01/25 05:36:05;;;;;;;;;;;4.10;99.90;;;;;;5036885;28;20276;-87
2022/01/25 05:38:31;;;;;;;;;;;4.10;99.90;;;;;;5037797;28;19931;-87
2022/01/25 05:41:02;;;;;;;;;;;4.00;99.90;;;;;;5037520;28;20344;-87
2022/01/25 05:46:16;;;;;;;;;;;4.10;99.90;;;;;;5054868;28;20253;-87
2022/01/25 05:48:42;;;;;;;;;;;4.10;99.90;;;;;;5037450;28;19921;-87
2022/01/25 05:51:08;;;;;;;;;;;4.10;99.90;;;;;;5036863;28;20295;-87
2022/01/25 05:53:34;;;;;;;;;;;4.60;99.90;;;;;;5053281;28;19920;-87
2022/01/25 05:56:02;;;;;;;;;;;4.20;99.90;;;;;;5037219;28;20319;-87
2022/01/25 05:58:28;;;;;;;;;;;4.10;99.90;;;;;;5037401;28;20316;-88
2022/01/25 06:00:57;;;;;;;;;;;4.60;99.90;;;;;;5036916;28;19978;-88
2022/01/25 06:03:22;;;;;;;;;;;4.10;99.90;;;;;;5037992;28;19920;-87
2022/01/25 06:05:48;;;;;;;;;;;4.10;99.90;;;;;;5036902;28;19947;-87
2022/01/25 06:08:14;;;;;;;;;;;4.20;99.90;;;;;;5037120;28;19921;-87
2022/01/25 06:10:45;;;;;;;;;;;4.20;99.90;;;;;;5037211;28;20008;-87
2022/01/25 06:13:14;;;;;;;;;;;3.80;99.90;;;;;;5037101;28;19921;-87
2022/01/25 06:15:39;;;;;;;;;;;4.10;99.90;;;;;;5053540;28;19924;-87
2022/01/25 06:18:05;;;;;;;;;;;4.20;99.90;;;;;;5036732;28;20257;-87
2022/01/25 06:20:32;;;;;;;;;;;4.20;99.90;;;;;;5037148;28;19924;-87
2022/01/25 06:22:58;;;;;;;;;;;4.10;99.90;;;;;;5036846;28;19966;-87
2022/01/25 06:25:24;;;;;;;;;;;4.10;99.90;;;;;;5036374;28;20003;-88
2022/01/25 06:27:49;;;;;;;;;;;4.10;99.90;;;;;;5036173;28;20432;-87
2022/01/25 06:30:16;;;;;;;;;;;4.10;99.90;;;;;;5036571;28;19927;-87
2022/01/25 06:32:45;;;;;;;;;;;4.10;99.90;;;;;;5036498;28;20011;-87
2022/01/25 06:35:11;;;;;;;;;;;4.30;99.90;;;;;;5036212;28;19921;-87
2022/01/25 06:37:37;;;;;;;;;;;4.40;99.90;;;;;;5036861;28;19998;-87
2022/01/25 06:40:06;;;;;;;;;;;4.60;99.90;;;;;;5036775;28;20364;-87
2022/01/25 06:42:32;;;;;;;;;;;4.10;99.90;;;;;;5036540;28;19920;-87
2022/01/25 06:45:01;;;;;;;;;;;4.10;99.90;;;;;;5036157;28;19920;-87
2022/01/25 06:47:27;;;;;;;;;;;4.10;99.90;;;;;;5036380;28;19921;-87
2022/01/25 06:49:52;;;;;;;;;;;4.10;99.90;;;;;;5036657;28;19921;-87
2022/01/25 06:52:18;;;;;;;;;;;4.00;99.90;;;;;;5052837;28;20352;-87
2022/01/25 06:54:43;;;;;;;;;;;4.20;99.90;;;;;;5036420;28;19925;-87
2022/01/25 06:57:09;;;;;;;;;;;4.10;99.90;;;;;;5036414;28;20249;-86
2022/01/25 06:59:44;;;;;;;;;;;4.30;99.90;;;;;;5037685;28;19927;-87
2022/01/25 07:02:10;;;;;;;;;;;4.10;99.90;;;;;;5036567;28;19920;-87
2022/01/25 07:04:35;;;;;;;;;;;4.10;99.90;;;;;;5036569;28;19921;-87
2022/01/25 07:07:01;;;;;;;;;;;3.90;99.90;;;;;;5036265;28;19924;-87
2022/01/25 07:09:36;;;;;;;;;;;4.10;99.90;;;;;;5036104;28;19920;-87
2022/01/25 07:12:07;;;;;;;;;;;4.10;99.90;;;;;;5053144;28;20340;-88
2022/01/25 07:14:32;;;;;;;;;;;4.10;99.90;;;;;;5035944;28;20016;-87
2022/01/25 07:17:01;;;;;;;;;;;3.80;99.90;;;;;;5036785;28;19928;-86
2022/01/25 07:19:28;;;;;;;;;;;4.10;99.90;;;;;;5035869;28;20437;-86
2022/01/25 07:21:54;;;;;;;;;;;4.10;99.90;;;;;;5036939;28;19921;-87
2022/01/25 07:24:19;;;;;;;;;;;4.20;99.90;;;;;;5035829;28;19971;-87
2022/01/25 07:26:47;;;;;;;;;;;4.30;99.90;;;;;;5035939;28;20012;-86
2022/01/25 07:29:12;;;;;;;;;;;4.40;99.90;;;;;;5036266;28;19971;-86
2022/01/25 07:31:38;;;;;;;;;;;4.10;99.90;;;;;;5039263;28;19968;-86
2022/01/25 07:34:04;;;;;;;;;;;3.80;99.90;;;;;;5040166;28;20332;-86
2022/01/25 07:36:29;;;;;;;;;;;4.20;99.90;;;;;;5056699;28;19921;-86
2022/01/25 07:38:55;;;;;;;;;;;4.10;99.90;;;;;;5039833;28;19987;-86
2022/01/25 07:41:21;;;;;;;;;;;4.30;99.90;;;;;;5039086;28;19928;-86
2022/01/25 07:43:53;;;;;;;;;;;5.40;99.90;;;;;;5039702;28;20269;-92
2022/01/25 07:46:18;;;;;;;;;;;4.10;99.90;;;;;;5039721;28;19929;-90
2022/01/25 07:48:44;;;;;;;;;;;4.10;99.90;;;;;;5039057;28;19927;-92
2022/01/25 07:51:31;;;;;;;;;;;4.10;99.90;;;;;;5039807;28;19935;-92
2022/01/25 07:53:59;;;;;;;;;;;4.10;99.90;;;;;;5045088;28;19921;-92
2022/01/25 07:56:25;;;;;;;;;;;4.00;99.90;;;;;;5056105;28;19967;-92
2022/01/25 07:58:53;;;;;;;;;;;4.20;99.90;;;;;;5039548;28;19920;-93
2022/01/25 08:01:19;;;;;;;;;;;4.10;99.90;;;;;;5055645;28;20399;-91
2022/01/25 08:03:45;;;;;;;;;;;4.20;99.90;;;;;;5055743;28;19999;-91
2022/01/25 08:06:12;;;;;;;;;;;4.20;99.90;;;;;;5038738;28;19967;-89
2022/01/25 08:08:39;;;;;;;;;;;4.10;99.90;;;;;;5038623;28;19952;-87
2022/01/25 08:11:04;;;;;;;;;;;4.10;99.90;;;;;;5055885;28;19966;-86
2022/01/25 08:13:30;;;;;;;;;;;4.20;99.90;;;;;;5055795;28;20011;-87
2022/01/25 08:15:56;;;;;;;;;;;4.10;99.90;;;;;;5056072;28;19920;-87
2022/01/25 08:18:22;;;;;;;;;;;4.20;99.90;;;;;;5055459;28;19925;-87
2022/01/25 08:20:47;;;;;;;;;;;3.80;99.90;;;;;;5056002;28;20257;-87
2022/01/25 08:23:13;;;;;;;;;;;4.00;99.90;;;;;;5055733;28;19975;-86
2022/01/25 08:25:39;;;;;;;;;;;4.10;99.90;;;;;;5055536;28;19931;-87
2022/01/25 08:28:05;;;;;;;;;;;4.20;99.90;;;;;;5054945;28;20292;-87
2022/01/25 08:30:30;;;;;;;;;;;4.60;99.90;;;;;;5055677;28;19927;-87
2022/01/25 08:32:56;;;;;;;;;;;4.50;99.90;;;;;;5055147;28;19921;-85
2022/01/25 08:35:24;;;;;;;;;;;5.50;99.90;;;;;;5055379;28;19975;-85
2022/01/25 08:37:49;;;;;;;;;;;4.50;99.90;;;;;;5055626;28;20012;-85
2022/01/25 08:40:15;;;;;;;;;;;5.00;99.90;;;;;;5056170;28;19964;-85
2022/01/25 08:42:41;;;;;;;;;;;4.20;99.90;;;;;;5053575;28;19964;-86
2022/01/25 08:45:07;;;;;;;;;;;4.20;99.90;;;;;;5056079;28;19925;-85
2022/01/25 08:47:33;;;;;;;;;;;4.20;99.90;;;;;;5055434;28;19944;-85
2022/01/25 08:49:59;;;;;;;;;;;4.20;99.90;;;;;;5055400;28;19932;-85
2022/01/25 08:52:24;;;;;;;;;;;4.30;99.90;;;;;;5054661;28;19920;-85
2022/01/25 08:54:50;;;;;;;;;;;4.20;99.90;;;;;;5055123;28;19921;-85
2022/01/25 08:57:16;;;;;;;;;;;4.40;99.90;;;;;;5054431;28;19920;-87
2022/01/25 08:59:41;;;;;;;;;;;4.30;99.90;;;;;;5043436;28;19927;-85
2022/01/25 09:02:07;;;;;;;;;;;4.30;99.90;;;;;;5037379;28;19967;-86
2022/01/25 09:04:32;;;;;;;;;;;4.20;99.90;;;;;;5054614;28;19920;-86
2022/01/25 09:06:58;;;;;;;;;;;5.80;99.90;;;;;;5054801;28;19924;-86
2022/01/25 09:09:24;;;;;;;;;;;4.30;99.90;;;;;;5054283;28;20023;-86
2022/01/25 09:11:50;;;;;;;;;;;4.90;99.90;;;;;;5037460;28;19920;-86
2022/01/25 09:14:15;;;;;;;;;;;4.20;99.90;;;;;;5038085;28;19924;-87
2022/01/25 09:16:41;;;;;;;;;;;5.00;99.90;;;;;;5038038;28;19970;-86
2022/01/25 09:19:07;;;;;;;;;;;4.70;99.90;;;;;;5037281;28;20011;-87
2022/01/25 09:21:33;;;;;;;;;;;4.40;99.90;;;;;;5037667;28;19953;-86
2022/01/25 09:23:58;;;;;;;;;;;4.30;99.90;;;;;;5037299;28;19920;-86
2022/01/25 09:26:24;;;;;;;;;;;4.40;99.90;;;;;;5036863;28;19920;-87
2022/01/25 09:28:53;;;;;;;;;;;4.30;99.90;;;;;;5043189;28;20349;-88
2022/01/25 09:31:19;;;;;;;;;;;4.70;99.90;;;;;;5036768;28;20423;-85
2022/01/25 09:33:44;;;;;;;;;;;4.30;99.90;;;;;;5033831;28;19920;-87
2022/01/25 09:36:10;;;;;;;;;;;5.10;99.90;;;;;;5048163;28;19928;-88
2022/01/25 09:38:36;;;;;;;;;;;4.30;99.90;;;;;;5036240;28;20378;-87
2022/01/25 09:41:02;;;;;;;;;;;4.50;99.90;;;;;;5037109;28;19925;-87
2022/01/25 09:43:28;;;;;;;;;;;4.40;99.90;;;;;;5036842;28;19920;-88
2022/01/25 09:45:54;;;;;;;;;;;4.40;99.90;;;;;;5053180;28;19921;-87
2022/01/25 09:48:19;;;;;;;;;;;5.60;99.90;;;;;;5053898;28;19920;-87
2022/01/25 09:50:45;;;;;;;;;;;4.40;99.90;;;;;;5053640;28;19921;-87
2022/01/25 09:53:11;;;;;;;;;;;4.40;99.90;;;;;;5053311;28;19960;-87
2022/01/25 09:55:40;;;;;;;;;;;4.80;99.90;;;;;;5054717;28;20007;-85
2022/01/25 09:58:05;;;;;;;;;;;4.60;99.90;;;;;;5037172;28;19921;-87
2022/01/25 10:00:32;;;;;;;;;;;4.40;99.90;;;;;;5053865;28;19967;-86
2022/01/25 10:05:31;;;;;;;;;;;4.70;99.90;;;;;;5053726;28;19967;-85
2022/01/25 10:08:02;;;;;;;;;;;4.40;99.90;;;;;;5037327;28;19963;-86
2022/01/25 10:10:29;;;;;;;;;;;4.40;99.90;;;;;;5036060;28;20454;-88
2022/01/25 10:12:56;;;;;;;;;;;4.60;99.90;;;;;;5049696;28;20024;-88
2022/01/25 10:15:24;;;;;;;;;;;4.70;99.90;;;;;;5035773;28;19920;-86
2022/01/25 10:17:50;;;;;;;;;;;4.50;99.90;;;;;;5053119;28;19925;-86
2022/01/25 10:20:33;;;;;;;;;;;4.50;99.90;;;;;;5049985;28;20398;-86
2022/01/25 10:23:00;;;;;;;;;;;4.50;99.90;;;;;;5053302;28;19974;-86
2022/01/25 10:25:31;;;;;;;;;;;4.50;99.90;;;;;;5035718;28;19921;-86
2022/01/25 10:28:01;;;;;;;;;;;4.50;99.90;;;;;;5052955;28;19920;-86
2022/01/25 10:30:29;;;;;;;;;;;4.50;99.90;;;;;;5036429;28;20269;-86
2022/01/25 10:32:58;;;;;;;;;;;4.80;99.90;;;;;;5036577;28;20023;-86
2022/01/25 10:35:24;;;;;;;;;;;4.50;99.90;;;;;;5035910;28;19943;-87
2022/01/25 10:37:50;;;;;;;;;;;4.70;99.90;;;;;;5052966;28;19921;-86
2022/01/25 10:40:33;;;;;;;;;;;5.00;99.90;;;;;;5036626;28;19929;-86
2022/01/25 10:42:59;;;;;;;;;;;4.70;99.90;;;;;;5037371;28;19970;-86
2022/01/25 10:45:24;;;;;;;;;;;4.60;99.90;;;;;;5036391;28;19920;-86
2022/01/25 10:47:51;;;;;;;;;;;4.70;99.90;;;;;;5036404;28;19943;-86
2022/01/25 10:50:21;;;;;;;;;;;4.70;99.90;;;;;;5035867;28;20372;-86
2022/01/25 10:53:01;;;;;;;;;;;4.70;99.90;;;;;;5037243;28;19921;-86
2022/01/25 10:55:35;;;;;;;;;;;4.70;99.90;;;;;;5037003;28;20260;-86
2022/01/25 10:58:02;;;;;;;;;;;4.60;99.90;;;;;;5036666;28;20011;-86
2022/01/25 11:00:33;;;;;;;;;;;5.00;99.90;;;;;;5036686;28;19925;-86
2022/01/25 11:02:58;;;;;;;;;;;4.70;99.90;;;;;;5052865;28;19935;-86
2022/01/25 11:05:25;;;;;;;;;;;4.60;99.90;;;;;;5037509;28;19920;-86
2022/01/25 11:07:51;;;;;;;;;;;4.50;99.90;;;;;;5040470;28;19921;-86
2022/01/25 11:10:19;;;;;;;;;;;4.70;99.90;;;;;;5040281;28;20330;-86
2022/01/25 11:13:00;;;;;;;;;;;4.70;99.90;;;;;;5040004;28;19988;-86
2022/01/25 11:15:26;;;;;;;;;;;4.80;99.90;;;;;;5040401;28;19970;-86
2022/01/25 11:17:51;;;;;;;;;;;4.70;99.90;;;;;;5049102;28;19984;-87
2022/01/25 11:20:17;;;;;;;;;;;4.60;99.90;;;;;;5055828;28;19928;-86
2022/01/25 11:22:44;;;;;;;;;;;5.00;99.90;;;;;;5056583;28;19935;-87
2022/01/25 11:25:10;;;;;;;;;;;5.10;99.90;;;;;;5039694;28;20371;-86
2022/01/25 11:27:37;;;;;;;;;;;4.80;99.90;;;;;;5039060;28;19927;-85
2022/01/25 11:30:08;;;;;;;;;;;4.80;99.90;;;;;;5049916;28;19927;-86
2022/01/25 11:32:53;;;;;;;;;;;4.80;99.90;;;;;;5039315;28;19921;-86
2022/01/25 11:35:20;;;;;;;;;;;4.80;99.90;;;;;;5056419;28;20364;-86
2022/01/25 11:37:47;;;;;;;;;;;5.30;99.90;;;;;;5040300;28;19921;-85
2022/01/25 11:40:22;;;;;;;;;;;4.80;99.90;;;;;;5040037;28;19944;-86
2022/01/25 11:42:49;;;;;;;;;;;4.90;99.90;;;;;;5040019;28;19921;-86
2022/01/25 11:45:14;;;;;;;;;;;4.90;99.90;;;;;;5039362;28;20016;-85
2022/01/25 11:47:46;;;;;;;;;;;5.80;99.90;;;;;;5039680;28;19967;-86
2022/01/25 11:50:13;;;;;;;;;;;4.80;99.90;;;;;;5057207;28;19966;-85
2022/01/25 11:52:49;;;;;;;;;;;4.90;99.90;;;;;;5039162;28;19925;-86
2022/01/25 11:55:20;;;;;;;;;;;4.30;99.90;;;;;;5039225;28;20007;-85
2022/01/25 11:57:47;;;;;;;;;;;4.90;99.90;;;;;;5039489;28;19924;-86
2022/01/25 12:00:13;;;;;;;;;;;5.30;99.90;;;;;;5055237;28;19924;-86
2022/01/25 12:02:43;;;;;;;;;;;4.90;99.90;;;;;;5055740;28;20015;-86
2022/01/25 12:05:10;;;;;;;;;;;4.90;99.90;;;;;;5056167;28;19929;-85
2022/01/25 12:07:40;;;;;;;;;;;4.90;99.90;;;;;;5056015;28;19921;-86
2022/01/25 12:10:27;;;;;;;;;;;5.10;99.90;;;;;;5039196;28;20296;-86
2022/01/25 12:13:12;;;;;;;;;;;4.90;99.90;;;;;;5039775;28;19921;-86
2022/01/25 12:15:38;;;;;;;;;;;4.90;99.90;;;;;;5055572;28;20007;-86
2022/01/25 12:18:03;;;;;;;;;;;5.00;99.90;;;;;;5055645;28;19967;-86
2022/01/25 12:20:29;;;;;;;;;;;5.40;99.90;;;;;;5038873;28;19920;-86
2022/01/25 12:23:17;;;;;;;;;;;5.20;99.90;;;;;;5055724;28;19925;-86
2022/01/25 12:25:55;;;;;;;;;;;5.10;99.90;;;;;;5055151;28;19973;-86
2022/01/25 12:28:31;;;;;;;;;;;5.30;99.90;;;;;;5055731;28;19920;-86
2022/01/25 12:31:01;;;;;;;;;;;5.10;99.90;;;;;;5055587;28;19929;-86
2022/01/25 12:33:28;;;;;;;;;;;5.10;99.90;;;;;;5056083;28;19921;-86
2022/01/25 12:35:59;;;;;;;;;;;5.10;99.90;;;;;;5055311;28;19921;-86
2022/01/25 12:38:27;;;;;;;;;;;5.10;99.90;;;;;;5038743;28;19944;-86
2022/01/25 12:40:55;;;;;;;;;;;5.10;99.90;;;;;;5055280;28;19921;-86
2022/01/25 12:43:21;;;;;;;;;;;4.90;99.90;;;;;;5055306;28;19975;-86
2022/01/25 12:45:46;;;;;;;;;;;5.00;99.90;;;;;;5038538;28;20022;-86
2022/01/25 12:48:13;;;;;;;;;;;5.10;99.90;;;;;;5038629;28;19921;-86
2022/01/25 12:50:44;;;;;;;;;;;5.00;99.90;;;;;;5054792;28;19967;-86
2022/01/25 12:53:11;;;;;;;;;;;5.00;99.90;;;;;;5054886;28;20010;-86
2022/01/25 12:55:39;;;;;;;;;;;5.60;99.90;;;;;;5055163;28;19924;-86
2022/01/25 12:58:05;;;;;;;;;;;5.10;99.90;;;;;;5054931;28;19920;-86
2022/01/25 13:00:33;;;;;;;;;;;5.30;99.90;;;;;;5038986;28;20275;-86
2022/01/25 13:03:14;;;;;;;;;;;5.30;99.90;;;;;;5054841;28;19924;-86
2022/01/25 13:05:41;;;;;;;;;;;5.10;99.90;;;;;;5038354;28;19921;-86
2022/01/25 13:08:14;;;;;;;;;;;5.00;99.90;;;;;;5054770;28;19920;-85
2022/01/25 13:10:40;;;;;;;;;;;5.10;99.90;;;;;;5054463;28;20016;-86
2022/01/25 13:13:21;;;;;;;;;;;5.20;99.90;;;;;;5054677;28;20028;-86
2022/01/25 13:18:12;;;;;;;;;;;5.00;99.90;;;;;;5054649;28;20315;-86
2022/01/25 13:20:43;;;;;;;;;;;5.00;99.90;;;;;;5054672;28;19947;-86
2022/01/25 13:23:09;;;;;;;;;;;5.00;99.90;;;;;;5054316;28;20372;-86
2022/01/25 13:30:58;;;;;;;;;;;5.00;99.90;;;;;;5054273;28;19920;-85
2022/01/25 13:33:23;;;;;;;;;;;5.00;99.90;;;;;;5054390;28;19983;-85
2022/01/25 13:35:53;;;;;;;;;;;5.10;99.90;;;;;;5053908;28;19921;-86
2022/01/25 13:38:18;;;;;;;;;;;5.20;99.90;;;;;;5053936;28;19987;-86
2022/01/25 13:45:53;;;;;;;;;;;5.70;99.90;;;;;;5054189;28;19924;-86
2022/01/25 13:48:21;;;;;;;;;;;4.90;99.90;;;;;;5053463;28;20396;-85
2022/01/25 13:50:51;;;;;;;;;;;5.00;99.90;;;;;;5054027;28;20078;-85
2022/01/25 13:53:17;;;;;;;;;;;5.00;99.90;;;;;;5053726;28;19921;-86
2022/01/25 13:55:47;;;;;;;;;;;5.50;99.90;;;;;;5053933;28;20284;-86
2022/01/25 13:58:26;;;;;;;;;;;4.90;99.90;;;;;;5053814;28;20003;-86
2022/01/25 14:00:53;;;;;;;;;;;5.00;99.90;;;;;;5053287;28;19974;-86
2022/01/25 14:03:22;;;;;;;;;;;5.40;99.90;;;;;;5053586;28;19925;-86
2022/01/25 14:05:48;;;;;;;;;;;5.10;99.90;;;;;;5053643;28;19920;-85
2022/01/25 14:08:14;;;;;;;;;;;4.90;99.90;;;;;;5053889;28;19927;-85
2022/01/25 14:10:44;;;;;;;;;;;5.90;99.90;;;;;;5053516;28;19920;-85
2022/01/25 14:24:06;;;;;;;;;;;4.90;99.90;;;;;;5053738;28;19971;-85
2022/01/25 14:26:32;;;;;;;;;;;4.90;99.90;;;;;;5052709;28;19921;-85
2022/01/25 14:29:13;;;;;;;;;;;5.00;99.90;;;;;;5036661;28;19920;-86
2022/01/25 14:31:41;;;;;;;;;;;4.90;99.90;;;;;;5036604;28;19925;-86
2022/01/25 14:34:08;;;;;;;;;;;5.10;99.90;;;;;;5053265;28;19935;-86
2022/01/25 14:36:34;;;;;;;;;;;5.10;99.90;;;;;;5052285;28;19920;-86
2022/01/25 14:39:00;;;;;;;;;;;5.00;99.90;;;;;;5036377;28;20330;-86
2022/01/25 14:41:29;;;;;;;;;;;5.60;99.90;;;;;;5036435;28;19956;-86
2022/01/25 14:44:04;;;;;;;;;;;5.20;99.90;;;;;;5052854;28;20460;-86
2022/01/25 14:46:35;;;;;;;;;;;4.80;99.90;;;;;;5035963;28;20361;-86
2022/01/25 14:49:08;;;;;;;;;;;4.90;99.90;;;;;;5036654;28;20360;-85
2022/01/25 14:51:36;;;;;;;;;;;4.80;99.90;;;;;;5036305;28;19974;-86
2022/01/25 14:54:02;;;;;;;;;;;5.20;99.90;;;;;;5036481;28;19925;-86
2022/01/25 14:56:35;;;;;;;;;;;5.40;99.90;;;;;;5036753;28;20410;-86
2022/01/25 14:59:27;;;;;;;;;;;4.80;99.90;;;;;;5036374;28;19974;-85
2022/01/25 15:01:56;;;;;;;;;;;4.80;99.90;;;;;;5037193;28;19924;-86
2022/01/25 15:04:22;;;;;;;;;;;4.90;99.90;;;;;;5037245;28;19921;-86
2022/01/25 15:06:48;;;;;;;;;;;4.90;99.90;;;;;;5036336;28;19921;-85
2022/01/25 15:09:14;;;;;;;;;;;5.00;99.90;;;;;;5036309;28;19928;-86
2022/01/25 15:11:40;;;;;;;;;;;4.90;99.90;;;;;;5035802;28;19921;-85
2022/01/25 15:14:19;;;;;;;;;;;4.80;99.90;;;;;;5037085;28;20312;-85
2022/01/25 15:16:45;;;;;;;;;;;4.90;99.90;;;;;;5036941;28;19920;-85
2022/01/25 15:19:13;;;;;;;;;;;4.70;99.90;;;;;;5036294;28;20272;-85
2022/01/25 15:21:40;;;;;;;;;;;5.30;99.90;;;;;;5035863;28;19925;-85
2022/01/25 15:24:06;;;;;;;;;;;4.70;99.90;;;;;;5036202;28;19921;-86
2022/01/25 15:26:36;;;;;;;;;;;4.70;99.90;;;;;;5052372;28;20067;-86
2022/01/25 15:29:04;;;;;;;;;;;4.80;99.90;;;;;;5052490;28;20355;-86
2022/01/25 15:31:30;;;;;;;;;;;4.80;99.90;;;;;;5036014;28;19921;-86
2022/01/25 15:33:55;;;;;;;;;;;4.70;99.90;;;;;;5035651;28;19924;-85
2022/01/25 15:36:21;;;;;;;;;;;4.70;99.90;;;;;;5036048;28;19921;-86
2022/01/25 15:38:49;;;;;;;;;;;4.80;99.90;;;;;;5036292;28;19921;-86
2022/01/25 15:41:14;;;;;;;;;;;4.70;99.90;;;;;;5035911;28;19921;-85
2022/01/25 15:43:49;;;;;;;;;;;4.80;99.90;;;;;;5036044;28;19990;-86
2022/01/25 15:47:00;;;;;;;;;;;4.60;99.90;;;;;;5036248;28;19921;-86
2022/01/25 15:49:06;;;;;;;;;;;4.60;99.90;;;;;;5044294;28;20345;-86
2022/01/25 15:51:32;;;;;;;;;;;4.60;99.90;;;;;;5036719;28;20015;-86
2022/01/25 15:53:58;;;;;;;;;;;4.50;99.90;;;;;;5057114;28;19927;-85
2022/01/25 15:56:24;;;;;;;;;;;4.60;99.90;;;;;;5040357;28;19920;-85
2022/01/25 15:58:51;;;;;;;;;;;5.30;99.90;;;;;;5039540;28;19921;-86
2022/01/25 16:01:16;;;;;;;;;;;4.50;99.90;;;;;;5039403;28;19972;-86
2022/01/25 16:03:42;;;;;;;;;;;5.00;99.90;;;;;;5039474;28;19967;-87
2022/01/25 16:06:08;;;;;;;;;;;4.60;99.90;;;;;;5039286;28;19921;-86
2022/01/25 16:08:35;;;;;;;;;;;4.80;99.90;;;;;;5039727;28;20353;-86
2022/01/25 16:11:02;;;;;;;;;;;4.50;99.90;;;;;;5039126;28;20011;-86
2022/01/25 16:13:30;;;;;;;;;;;4.50;99.90;;;;;;5038733;28;19920;-90
2022/01/25 16:15:57;;;;;;;;;;;4.60;99.90;;;;;;5048222;28;20079;-91
2022/01/25 16:18:22;;;;;;;;;;;4.50;99.90;;;;;;5055771;28;19927;-90
2022/01/25 16:20:51;;;;;;;;;;;5.10;99.90;;;;;;5039522;28;19964;-90
2022/01/25 16:23:17;;;;;;;;;;;4.50;99.90;;;;;;5046106;28;20380;-91
2022/01/25 16:25:44;;;;;;;;;;;4.00;99.90;;;;;;5049498;28;19956;-89
2022/01/25 16:28:10;;;;;;;;;;;4.50;99.90;;;;;;5038517;28;19964;-90
2022/01/25 16:30:42;;;;;;;;;;;4.50;99.90;;;;;;5043759;28;19920;-91
2022/01/25 16:33:10;;;;;;;;;;;4.50;99.90;;;;;;5038146;28;19928;-88
2022/01/25 16:35:35;;;;;;;;;;;4.60;99.90;;;;;;5037977;28;19925;-90
2022/01/25 16:38:01;;;;;;;;;;;4.50;99.90;;;;;;5036857;28;20062;-90